sensor_id;sensor_type;location;lat;lon;timestamp;temperature;humidity
43183;DHT22;28802;38.578;-0.066;2022-08-19T00:00:37;24.50;99.90
43183;DHT22;28802;38.578;-0.066;2022-08-19T00:03:05;24.40;99.90
43183;DHT22;28802;38.578;-0.066;2022-08-19T00:05:31;24.30;99.90
43183;DHT22;28802;38.578;-0.066;2022-08-19T00:07:57;24.10;99.90
43183;DHT22;28802;38.578;-0.066;2022-08-19T00:10:23;24.10;99.90
43183;DHT22;28802;38.578;-0.066;2022-08-19T00:12:50;24.00;99.90
43183;DHT22;28802;38.578;-0.066;2022-08-19T00:15:19;23.90;99.90
43183;DHT22;28802;38.578;-0.066;2022-08-19T00:17:46;23.90;99.90
43183;DHT22;28802;38.578;-0.066;2022-08-19T00:20:15;23.80;99.90
43183;DHT22;28802;38.578;-0.066;2022-08-19T00:22:43;23.90;99.90
43183;DHT22;28802;38.578;-0.066;2022-08-19T00:25:10;23.80;99.90
43183;DHT22;28802;38.578;-0.066;2022-08-19T00:27:36;23.90;99.90
43183;DHT22;28802;38.578;-0.066;2022-08-19T00:30:04;24.00;99.90
43183;DHT22;28802;38.578;-0.066;2022-08-19T00:32:30;24.10;99.90
43183;DHT22;28802;38.578;-0.066;2022-08-19T00:34:56;24.10;99.90
43183;DHT22;28802;38.578;-0.066;2022-08-19T00:37:23;24.10;99.90
43183;DHT22;28802;38.578;-0.066;2022-08-19T00:39:51;24.10;99.90
43183;DHT22;28802;38.578;-0.066;2022-08-19T00:42:19;24.00;99.90
43183;DHT22;28802;38.578;-0.066;2022-08-19T00:44:46;23.90;99.90
43183;DHT22;28802;38.578;-0.066;2022-08-19T00:47:13;23.90;99.90
43183;DHT22;28802;38.578;-0.066;2022-08-19T00:49:49;23.80;99.90
43183;DHT22;28802;38.578;-0.066;2022-08-19T00:52:22;23.70;99.90
43183;DHT22;28802;38.578;-0.066;2022-08-19T00:54:49;23.70;99.90
43183;DHT22;28802;38.578;-0.066;2022-08-19T00:57:18;23.70;99.90
43183;DHT22;28802;38.578;-0.066;2022-08-19T00:59:48;23.70;99.90
43183;DHT22;28802;38.578;-0.066;2022-08-19T01:02:18;23.70;99.90
43183;DHT22;28802;38.578;-0.066;2022-08-19T01:04:44;23.50;99.90
43183;DHT22;28802;38.578;-0.066;2022-08-19T01:07:10;23.50;99.90
43183;DHT22;28802;38.578;-0.066;2022-08-19T01:09:35;23.50;99.90
43183;DHT22;28802;38.578;-0.066;2022-08-19T01:12:02;23.50;99.90
43183;DHT22;28802;38.578;-0.066;2022-08-19T01:14:29;23.30;99.90
43183;DHT22;28802;38.578;-0.066;2022-08-19T01:16:56;23.40;99.90
43183;DHT22;28802;38.578;-0.066;2022-08-19T01:19:27;23.60;99.90
43183;DHT22;28802;38.578;-0.066;2022-08-19T01:22:16;23.60;99.90
43183;DHT22;28802;38.578;-0.066;2022-08-19T01:24:44;23.50;99.90
43183;DHT22;28802;38.578;-0.066;2022-08-19T01:27:10;23.30;99.90
43183;DHT22;28802;38.578;-0.066;2022-08-19T01:29:39;23.30;99.90
43183;DHT22;28802;38.578;-0.066;2022-08-19T01:32:05;23.20;99.90
43183;DHT22;28802;38.578;-0.066;2022-08-19T01:34:31;23.30;99.90
43183;DHT22;28802;38.578;-0.066;2022-08-19T01:37:00;23.40;99.90
43183;DHT22;28802;38.578;-0.066;2022-08-19T01:39:27;23.40;99.90
43183;DHT22;28802;38.578;-0.066;2022-08-19T01:41:53;23.40;99.90
43183;DHT22;28802;38.578;-0.066;2022-08-19T01:44:21;23.50;99.90
43183;DHT22;28802;38.578;-0.066;2022-08-19T01:46:50;23.50;99.90
43183;DHT22;28802;38.578;-0.066;2022-08-19T01:49:21;23.30;99.90
43183;DHT22;28802;38.578;-0.066;2022-08-19T01:51:48;23.20;99.90
43183;DHT22;28802;38.578;-0.066;2022-08-19T01:54:17;23.00;99.90
43183;DHT22;28802;38.578;-0.066;2022-08-19T01:56:43;23.00;99.90
43183;DHT22;28802;38.578;-0.066;2022-08-19T01:59:16;22.90;99.90
43183;DHT22;28802;38.578;-0.066;2022-08-19T02:01:43;22.80;99.90
43183;DHT22;28802;38.578;-0.066;2022-08-19T02:04:09;22.70;99.90
43183;DHT22;28802;38.578;-0.066;2022-08-19T02:06:35;22.70;99.90
43183;DHT22;28802;38.578;-0.066;2022-08-19T02:09:02;22.60;99.90
43183;DHT22;28802;38.578;-0.066;2022-08-19T02:11:30;22.60;99.90
43183;DHT22;28802;38.578;-0.066;2022-08-19T02:13:58;22.60;99.90
43183;DHT22;28802;38.578;-0.066;2022-08-19T02:16:24;22.60;99.90
43183;DHT22;28802;38.578;-0.066;2022-08-19T02:18:50;22.60;99.90
43183;DHT22;28802;38.578;-0.066;2022-08-19T02:21:21;22.70;99.90
43183;DHT22;28802;38.578;-0.066;2022-08-19T02:23:48;22.70;99.90
43183;DHT22;28802;38.578;-0.066;2022-08-19T02:26:15;22.60;99.90
43183;DHT22;28802;38.578;-0.066;2022-08-19T02:28:42;22.50;99.90
43183;DHT22;28802;38.578;-0.066;2022-08-19T02:31:10;22.50;99.90
43183;DHT22;28802;38.578;-0.066;2022-08-19T02:33:36;22.60;99.90
43183;DHT22;28802;38.578;-0.066;2022-08-19T02:36:05;22.70;99.90
43183;DHT22;28802;38.578;-0.066;2022-08-19T02:38:31;22.60;99.90
43183;DHT22;28802;38.578;-0.066;2022-08-19T02:41:05;22.50;99.90
43183;DHT22;28802;38.578;-0.066;2022-08-19T02:43:32;22.60;99.90
43183;DHT22;28802;38.578;-0.066;2022-08-19T02:46:20;22.70;99.90
43183;DHT22;28802;38.578;-0.066;2022-08-19T02:48:52;22.60;99.90
43183;DHT22;28802;38.578;-0.066;2022-08-19T02:51:24;22.70;99.90
43183;DHT22;28802;38.578;-0.066;2022-08-19T02:53:51;22.60;99.90
43183;DHT22;28802;38.578;-0.066;2022-08-19T02:56:18;22.60;99.90
43183;DHT22;28802;38.578;-0.066;2022-08-19T02:58:44;22.70;99.90
43183;DHT22;28802;38.578;-0.066;2022-08-19T03:01:18;22.80;99.90
43183;DHT22;28802;38.578;-0.066;2022-08-19T03:03:44;22.70;99.90
43183;DHT22;28802;38.578;-0.066;2022-08-19T03:06:14;22.60;99.90
43183;DHT22;28802;38.578;-0.066;2022-08-19T03:08:42;22.50;99.90
43183;DHT22;28802;38.578;-0.066;2022-08-19T03:11:28;22.40;99.90
43183;DHT22;28802;38.578;-0.066;2022-08-19T03:13:55;22.20;99.90
43183;DHT22;28802;38.578;-0.066;2022-08-19T03:16:24;22.20;99.90
43183;DHT22;28802;38.578;-0.066;2022-08-19T03:18:51;22.20;99.90
43183;DHT22;28802;38.578;-0.066;2022-08-19T03:21:19;22.20;99.90
43183;DHT22;28802;38.578;-0.066;2022-08-19T03:23:46;22.20;99.90
43183;DHT22;28802;38.578;-0.066;2022-08-19T03:26:12;22.40;99.90
43183;DHT22;28802;38.578;-0.066;2022-08-19T03:28:44;22.60;99.90
43183;DHT22;28802;38.578;-0.066;2022-08-19T03:31:14;22.50;99.90
43183;DHT22;28802;38.578;-0.066;2022-08-19T03:33:41;22.50;99.90
43183;DHT22;28802;38.578;-0.066;2022-08-19T03:36:12;22.60;99.90
43183;DHT22;28802;38.578;-0.066;2022-08-19T03:38:41;22.50;99.90
43183;DHT22;28802;38.578;-0.066;2022-08-19T03:41:10;22.30;99.90
43183;DHT22;28802;38.578;-0.066;2022-08-19T03:43:38;22.10;99.90
43183;DHT22;28802;38.578;-0.066;2022-08-19T03:46:07;21.90;99.90
43183;DHT22;28802;38.578;-0.066;2022-08-19T03:48:34;21.80;99.90
43183;DHT22;28802;38.578;-0.066;2022-08-19T03:51:01;21.80;99.90
43183;DHT22;28802;38.578;-0.066;2022-08-19T03:53:30;21.80;99.90
43183;DHT22;28802;38.578;-0.066;2022-08-19T03:55:57;21.90;99.90
43183;DHT22;28802;38.578;-0.066;2022-08-19T03:58:26;21.90;99.90
43183;DHT22;28802;38.578;-0.066;2022-08-19T04:00:57;21.90;99.90
43183;DHT22;28802;38.578;-0.066;2022-08-19T04:03:24;21.90;99.90
43183;DHT22;28802;38.578;-0.066;2022-08-19T04:05:52;22.10;99.90
43183;DHT22;28802;38.578;-0.066;2022-08-19T04:08:20;22.00;99.90
43183;DHT22;28802;38.578;-0.066;2022-08-19T04:10:49;22.00;99.90
43183;DHT22;28802;38.578;-0.066;2022-08-19T04:13:16;22.00;99.90
43183;DHT22;28802;38.578;-0.066;2022-08-19T04:15:44;22.00;99.90
43183;DHT22;28802;38.578;-0.066;2022-08-19T04:18:12;22.10;99.90
43183;DHT22;28802;38.578;-0.066;2022-08-19T04:20:46;22.00;99.90
43183;DHT22;28802;38.578;-0.066;2022-08-19T04:23:13;22.00;99.90
43183;DHT22;28802;38.578;-0.066;2022-08-19T04:25:41;21.90;99.90
43183;DHT22;28802;38.578;-0.066;2022-08-19T04:28:08;21.90;99.90
43183;DHT22;28802;38.578;-0.066;2022-08-19T04:30:52;22.00;99.90
43183;DHT22;28802;38.578;-0.066;2022-08-19T04:33:23;22.10;99.90
43183;DHT22;28802;38.578;-0.066;2022-08-19T04:35:51;22.10;99.90
43183;DHT22;28802;38.578;-0.066;2022-08-19T04:38:19;22.00;99.90
43183;DHT22;28802;38.578;-0.066;2022-08-19T04:40:48;21.90;99.90
43183;DHT22;28802;38.578;-0.066;2022-08-19T04:43:35;21.90;99.90
43183;DHT22;28802;38.578;-0.066;2022-08-19T04:46:11;21.80;99.90
43183;DHT22;28802;38.578;-0.066;2022-08-19T04:48:38;21.70;99.90
43183;DHT22;28802;38.578;-0.066;2022-08-19T04:51:10;21.80;99.90
43183;DHT22;28802;38.578;-0.066;2022-08-19T04:53:39;21.80;99.90
43183;DHT22;28802;38.578;-0.066;2022-08-19T04:56:11;21.80;99.90
43183;DHT22;28802;38.578;-0.066;2022-08-19T04:58:39;21.70;99.90
43183;DHT22;28802;38.578;-0.066;2022-08-19T05:01:06;21.70;99.90
43183;DHT22;28802;38.578;-0.066;2022-08-19T05:03:32;21.70;99.90
43183;DHT22;28802;38.578;-0.066;2022-08-19T05:06:08;21.70;99.90
43183;DHT22;28802;38.578;-0.066;2022-08-19T05:08:36;21.70;99.90
43183;DHT22;28802;38.578;-0.066;2022-08-19T05:11:15;21.90;99.90
43183;DHT22;28802;38.578;-0.066;2022-08-19T05:13:43;21.90;99.90
43183;DHT22;28802;38.578;-0.066;2022-08-19T05:16:11;21.80;99.90
43183;DHT22;28802;38.578;-0.066;2022-08-19T05:18:37;21.70;99.90
43183;DHT22;28802;38.578;-0.066;2022-08-19T05:21:22;21.80;99.90
43183;DHT22;28802;38.578;-0.066;2022-08-19T05:24:07;22.00;99.90
43183;DHT22;28802;38.578;-0.066;2022-08-19T05:26:40;22.00;99.90
43183;DHT22;28802;38.578;-0.066;2022-08-19T05:29:07;22.10;99.90
43183;DHT22;28802;38.578;-0.066;2022-08-19T05:31:35;22.00;99.90
43183;DHT22;28802;38.578;-0.066;2022-08-19T05:34:01;21.90;99.90
43183;DHT22;28802;38.578;-0.066;2022-08-19T05:36:35;22.00;99.90
43183;DHT22;28802;38.578;-0.066;2022-08-19T05:39:03;22.10;99.90
43183;DHT22;28802;38.578;-0.066;2022-08-19T05:41:29;22.40;99.90
43183;DHT22;28802;38.578;-0.066;2022-08-19T05:43:56;22.80;99.90
43183;DHT22;28802;38.578;-0.066;2022-08-19T05:46:23;23.30;99.90
43183;DHT22;28802;38.578;-0.066;2022-08-19T05:48:49;23.90;99.90
43183;DHT22;28802;38.578;-0.066;2022-08-19T05:51:15;24.30;99.90
43183;DHT22;28802;38.578;-0.066;2022-08-19T05:53:42;25.00;99.90
43183;DHT22;28802;38.578;-0.066;2022-08-19T05:56:12;25.40;99.90
43183;DHT22;28802;38.578;-0.066;2022-08-19T05:58:39;25.40;99.90
43183;DHT22;28802;38.578;-0.066;2022-08-19T06:01:11;26.00;99.90
43183;DHT22;28802;38.578;-0.066;2022-08-19T06:03:38;25.90;99.90
43183;DHT22;28802;38.578;-0.066;2022-08-19T06:06:06;26.00;99.90
43183;DHT22;28802;38.578;-0.066;2022-08-19T06:08:34;26.40;99.90
43183;DHT22;28802;38.578;-0.066;2022-08-19T06:13:41;28.00;99.90
43183;DHT22;28802;38.578;-0.066;2022-08-19T06:16:07;28.50;99.90
43183;DHT22;28802;38.578;-0.066;2022-08-19T06:18:33;28.50;99.90
43183;DHT22;28802;38.578;-0.066;2022-08-19T06:20:59;28.90;99.90
43183;DHT22;28802;38.578;-0.066;2022-08-19T06:23:25;29.40;99.90
43183;DHT22;28802;38.578;-0.066;2022-08-19T06:25:51;30.20;99.90
43183;DHT22;28802;38.578;-0.066;2022-08-19T06:28:17;30.80;99.90
43183;DHT22;28802;38.578;-0.066;2022-08-19T06:30:43;31.50;99.90
43183;DHT22;28802;38.578;-0.066;2022-08-19T06:33:09;31.80;99.90
43183;DHT22;28802;38.578;-0.066;2022-08-19T06:35:39;32.50;99.90
43183;DHT22;28802;38.578;-0.066;2022-08-19T06:38:05;33.10;99.90
43183;DHT22;28802;38.578;-0.066;2022-08-19T06:40:31;32.60;99.90
43183;DHT22;28802;38.578;-0.066;2022-08-19T06:42:57;33.00;99.90
43183;DHT22;28802;38.578;-0.066;2022-08-19T06:45:25;32.90;99.90
43183;DHT22;28802;38.578;-0.066;2022-08-19T06:47:52;33.20;99.90
43183;DHT22;28802;38.578;-0.066;2022-08-19T06:50:24;33.50;99.90
43183;DHT22;28802;38.578;-0.066;2022-08-19T06:52:50;34.10;99.90
43183;DHT22;28802;38.578;-0.066;2022-08-19T06:55:16;34.10;99.90
43183;DHT22;28802;38.578;-0.066;2022-08-19T06:57:42;34.30;99.90
43183;DHT22;28802;38.578;-0.066;2022-08-19T07:00:10;34.20;99.90
43183;DHT22;28802;38.578;-0.066;2022-08-19T07:02:40;34.30;99.90
43183;DHT22;28802;38.578;-0.066;2022-08-19T07:05:06;34.50;99.90
43183;DHT22;28802;38.578;-0.066;2022-08-19T07:07:32;35.20;99.90
43183;DHT22;28802;38.578;-0.066;2022-08-19T07:09:58;35.90;99.90
43183;DHT22;28802;38.578;-0.066;2022-08-19T07:12:24;36.20;99.90
43183;DHT22;28802;38.578;-0.066;2022-08-19T07:14:51;36.50;99.90
43183;DHT22;28802;38.578;-0.066;2022-08-19T07:17:18;36.70;99.90
43183;DHT22;28802;38.578;-0.066;2022-08-19T07:19:45;37.10;99.90
43183;DHT22;28802;38.578;-0.066;2022-08-19T07:22:11;37.30;99.90
43183;DHT22;28802;38.578;-0.066;2022-08-19T07:24:38;36.90;99.90
43183;DHT22;28802;38.578;-0.066;2022-08-19T07:27:05;37.20;99.90
43183;DHT22;28802;38.578;-0.066;2022-08-19T07:29:33;37.80;99.90
43183;DHT22;28802;38.578;-0.066;2022-08-19T07:32:01;37.80;99.90
43183;DHT22;28802;38.578;-0.066;2022-08-19T07:34:29;38.40;99.90
43183;DHT22;28802;38.578;-0.066;2022-08-19T07:36:55;38.90;99.90
43183;DHT22;28802;38.578;-0.066;2022-08-19T07:39:27;38.50;99.90
43183;DHT22;28802;38.578;-0.066;2022-08-19T07:41:54;37.50;99.90
43183;DHT22;28802;38.578;-0.066;2022-08-19T07:44:21;37.00;99.90
43183;DHT22;28802;38.578;-0.066;2022-08-19T07:46:51;36.50;99.90
43183;DHT22;28802;38.578;-0.066;2022-08-19T07:49:19;36.10;99.90
43183;DHT22;28802;38.578;-0.066;2022-08-19T07:51:47;36.50;99.90
43183;DHT22;28802;38.578;-0.066;2022-08-19T07:54:13;37.00;99.90
43183;DHT22;28802;38.578;-0.066;2022-08-19T07:56:39;35.40;99.90
43183;DHT22;28802;38.578;-0.066;2022-08-19T07:59:05;34.30;99.90
43183;DHT22;28802;38.578;-0.066;2022-08-19T08:01:31;33.80;99.90
43183;DHT22;28802;38.578;-0.066;2022-08-19T08:03:57;33.50;99.90
43183;DHT22;28802;38.578;-0.066;2022-08-19T08:06:42;32.70;99.90
43183;DHT22;28802;38.578;-0.066;2022-08-19T08:09:38;32.00;99.90
43183;DHT22;28802;38.578;-0.066;2022-08-19T08:12:11;31.40;99.90
43183;DHT22;28802;38.578;-0.066;2022-08-19T08:14:51;30.80;99.90
43183;DHT22;28802;38.578;-0.066;2022-08-19T08:17:20;30.50;99.90
43183;DHT22;28802;38.578;-0.066;2022-08-19T08:19:47;30.50;99.90
43183;DHT22;28802;38.578;-0.066;2022-08-19T08:22:17;30.50;99.90
43183;DHT22;28802;38.578;-0.066;2022-08-19T08:27:39;30.10;99.90
43183;DHT22;28802;38.578;-0.066;2022-08-19T08:30:18;29.90;99.90
43183;DHT22;28802;38.578;-0.066;2022-08-19T08:32:45;29.70;99.90
43183;DHT22;28802;38.578;-0.066;2022-08-19T08:35:13;29.70;99.90
43183;DHT22;28802;38.578;-0.066;2022-08-19T08:37:39;29.60;99.90
43183;DHT22;28802;38.578;-0.066;2022-08-19T08:43:07;29.80;99.90
43183;DHT22;28802;38.578;-0.066;2022-08-19T08:45:43;29.40;99.90
43183;DHT22;28802;38.578;-0.066;2022-08-19T08:48:31;29.40;99.90
43183;DHT22;28802;38.578;-0.066;2022-08-19T08:51:03;29.50;99.90
43183;DHT22;28802;38.578;-0.066;2022-08-19T08:53:31;29.60;99.90
43183;DHT22;28802;38.578;-0.066;2022-08-19T08:55:58;29.70;99.90
43183;DHT22;28802;38.578;-0.066;2022-08-19T09:01:39;29.30;99.90
43183;DHT22;28802;38.578;-0.066;2022-08-19T09:04:06;29.00;99.90
43183;DHT22;28802;38.578;-0.066;2022-08-19T09:14:23;28.80;99.90
43183;DHT22;28802;38.578;-0.066;2022-08-19T09:16:54;28.80;99.90
43183;DHT22;28802;38.578;-0.066;2022-08-19T09:19:19;29.10;99.90
43183;DHT22;28802;38.578;-0.066;2022-08-19T09:21:45;29.20;99.90
43183;DHT22;28802;38.578;-0.066;2022-08-19T09:24:12;28.80;99.90
43183;DHT22;28802;38.578;-0.066;2022-08-19T09:26:38;28.90;99.90
43183;DHT22;28802;38.578;-0.066;2022-08-19T09:29:04;29.00;99.90
43183;DHT22;28802;38.578;-0.066;2022-08-19T09:31:32;28.90;99.90
43183;DHT22;28802;38.578;-0.066;2022-08-19T09:33:59;29.10;99.90
43183;DHT22;28802;38.578;-0.066;2022-08-19T09:36:26;28.90;99.90
43183;DHT22;28802;38.578;-0.066;2022-08-19T09:38:55;29.00;99.90
43183;DHT22;28802;38.578;-0.066;2022-08-19T09:41:23;29.00;99.90
43183;DHT22;28802;38.578;-0.066;2022-08-19T09:43:52;29.10;99.90
43183;DHT22;28802;38.578;-0.066;2022-08-19T09:46:19;29.30;99.90
43183;DHT22;28802;38.578;-0.066;2022-08-19T09:48:47;29.20;99.90
43183;DHT22;28802;38.578;-0.066;2022-08-19T09:51:20;29.20;99.90
43183;DHT22;28802;38.578;-0.066;2022-08-19T09:53:48;29.10;99.90
43183;DHT22;28802;38.578;-0.066;2022-08-19T09:56:18;29.30;99.90
43183;DHT22;28802;38.578;-0.066;2022-08-19T09:58:44;29.20;99.90
43183;DHT22;28802;38.578;-0.066;2022-08-19T10:01:17;29.40;99.90
43183;DHT22;28802;38.578;-0.066;2022-08-19T10:03:43;28.80;99.90
43183;DHT22;28802;38.578;-0.066;2022-08-19T10:06:09;28.80;99.90
43183;DHT22;28802;38.578;-0.066;2022-08-19T10:08:36;28.50;99.90
43183;DHT22;28802;38.578;-0.066;2022-08-19T10:11:03;28.50;99.90
43183;DHT22;28802;38.578;-0.066;2022-08-19T10:13:31;28.80;99.90
43183;DHT22;28802;38.578;-0.066;2022-08-19T10:16:05;28.90;99.90
43183;DHT22;28802;38.578;-0.066;2022-08-19T10:18:32;28.60;99.90
43183;DHT22;28802;38.578;-0.066;2022-08-19T10:21:08;28.20;99.90
43183;DHT22;28802;38.578;-0.066;2022-08-19T10:23:36;28.40;99.90
43183;DHT22;28802;38.578;-0.066;2022-08-19T10:26:04;28.30;99.90
43183;DHT22;28802;38.578;-0.066;2022-08-19T10:28:33;28.00;99.90
43183;DHT22;28802;38.578;-0.066;2022-08-19T10:31:03;28.10;99.90
43183;DHT22;28802;38.578;-0.066;2022-08-19T10:33:30;28.20;99.90
43183;DHT22;28802;38.578;-0.066;2022-08-19T10:36:01;28.60;99.90
43183;DHT22;28802;38.578;-0.066;2022-08-19T10:38:27;28.60;99.90
43183;DHT22;28802;38.578;-0.066;2022-08-19T10:40:54;28.40;99.90
43183;DHT22;28802;38.578;-0.066;2022-08-19T10:43:20;28.60;99.90
43183;DHT22;28802;38.578;-0.066;2022-08-19T10:45:53;28.90;99.90
43183;DHT22;28802;38.578;-0.066;2022-08-19T10:48:24;29.00;99.90
43183;DHT22;28802;38.578;-0.066;2022-08-19T10:50:50;29.10;99.90
43183;DHT22;28802;38.578;-0.066;2022-08-19T10:53:34;29.10;99.90
43183;DHT22;28802;38.578;-0.066;2022-08-19T10:56:00;29.10;99.90
43183;DHT22;28802;38.578;-0.066;2022-08-19T10:58:45;29.30;99.90
43183;DHT22;28802;38.578;-0.066;2022-08-19T11:01:11;29.50;99.90
43183;DHT22;28802;38.578;-0.066;2022-08-19T11:03:36;29.60;99.90
43183;DHT22;28802;38.578;-0.066;2022-08-19T11:06:06;30.10;99.90
43183;DHT22;28802;38.578;-0.066;2022-08-19T11:08:32;30.50;99.90
43183;DHT22;28802;38.578;-0.066;2022-08-19T11:11:02;30.70;99.90
43183;DHT22;28802;38.578;-0.066;2022-08-19T11:13:30;30.40;99.90
43183;DHT22;28802;38.578;-0.066;2022-08-19T11:16:18;30.70;99.90
43183;DHT22;28802;38.578;-0.066;2022-08-19T11:18:47;31.10;99.90
43183;DHT22;28802;38.578;-0.066;2022-08-19T11:21:20;30.90;99.90
43183;DHT22;28802;38.578;-0.066;2022-08-19T11:23:49;30.80;99.90
43183;DHT22;28802;38.578;-0.066;2022-08-19T11:26:17;30.70;99.90
43183;DHT22;28802;38.578;-0.066;2022-08-19T11:28:43;30.00;99.90
43183;DHT22;28802;38.578;-0.066;2022-08-19T11:31:14;29.50;99.90
43183;DHT22;28802;38.578;-0.066;2022-08-19T11:33:41;30.10;99.90
43183;DHT22;28802;38.578;-0.066;2022-08-19T11:36:07;30.30;99.90
43183;DHT22;28802;38.578;-0.066;2022-08-19T11:38:34;30.50;99.90
43183;DHT22;28802;38.578;-0.066;2022-08-19T11:41:06;31.20;99.90
43183;DHT22;28802;38.578;-0.066;2022-08-19T11:43:33;31.00;99.90
43183;DHT22;28802;38.578;-0.066;2022-08-19T11:46:10;31.30;99.90
43183;DHT22;28802;38.578;-0.066;2022-08-19T11:48:38;30.80;99.90
43183;DHT22;28802;38.578;-0.066;2022-08-19T11:51:08;30.60;99.90
43183;DHT22;28802;38.578;-0.066;2022-08-19T11:53:35;30.60;99.90
43183;DHT22;28802;38.578;-0.066;2022-08-19T11:56:02;30.40;99.90
43183;DHT22;28802;38.578;-0.066;2022-08-19T11:58:29;30.60;99.90
43183;DHT22;28802;38.578;-0.066;2022-08-19T12:00:56;31.00;99.90
43183;DHT22;28802;38.578;-0.066;2022-08-19T12:03:23;31.10;99.90
43183;DHT22;28802;38.578;-0.066;2022-08-19T12:05:49;31.00;99.90
43183;DHT22;28802;38.578;-0.066;2022-08-19T12:08:16;31.80;99.90
43183;DHT22;28802;38.578;-0.066;2022-08-19T12:10:43;31.40;99.90
43183;DHT22;28802;38.578;-0.066;2022-08-19T12:13:10;31.90;99.90
43183;DHT22;28802;38.578;-0.066;2022-08-19T12:15:38;31.70;99.90
43183;DHT22;28802;38.578;-0.066;2022-08-19T12:18:07;31.50;99.90
43183;DHT22;28802;38.578;-0.066;2022-08-19T12:20:38;31.60;99.90
43183;DHT22;28802;38.578;-0.066;2022-08-19T12:23:06;31.70;99.90
43183;DHT22;28802;38.578;-0.066;2022-08-19T12:25:33;31.20;99.90
43183;DHT22;28802;38.578;-0.066;2022-08-19T12:28:00;31.30;99.90
43183;DHT22;28802;38.578;-0.066;2022-08-19T12:30:26;31.10;99.90
43183;DHT22;28802;38.578;-0.066;2022-08-19T12:32:52;31.20;99.90
43183;DHT22;28802;38.578;-0.066;2022-08-19T12:35:19;31.70;99.90
43183;DHT22;28802;38.578;-0.066;2022-08-19T12:37:47;31.20;99.90
43183;DHT22;28802;38.578;-0.066;2022-08-19T12:40:14;30.70;99.90
43183;DHT22;28802;38.578;-0.066;2022-08-19T12:42:41;30.40;99.90
43183;DHT22;28802;38.578;-0.066;2022-08-19T12:45:12;30.80;99.90
43183;DHT22;28802;38.578;-0.066;2022-08-19T12:47:39;30.40;99.90
43183;DHT22;28802;38.578;-0.066;2022-08-19T12:50:06;30.10;99.90
43183;DHT22;28802;38.578;-0.066;2022-08-19T12:52:35;30.20;99.90
43183;DHT22;28802;38.578;-0.066;2022-08-19T12:55:06;29.90;99.90
43183;DHT22;28802;38.578;-0.066;2022-08-19T12:57:32;29.90;99.90
43183;DHT22;28802;38.578;-0.066;2022-08-19T13:00:10;29.70;99.90
43183;DHT22;28802;38.578;-0.066;2022-08-19T13:02:38;29.70;99.90
43183;DHT22;28802;38.578;-0.066;2022-08-19T13:05:05;29.30;99.90
43183;DHT22;28802;38.578;-0.066;2022-08-19T13:07:33;29.60;99.90
43183;DHT22;28802;38.578;-0.066;2022-08-19T13:10:00;29.70;99.90
43183;DHT22;28802;38.578;-0.066;2022-08-19T13:12:26;29.40;99.90
43183;DHT22;28802;38.578;-0.066;2022-08-19T13:14:53;29.30;99.90
43183;DHT22;28802;38.578;-0.066;2022-08-19T13:17:19;29.60;99.90
43183;DHT22;28802;38.578;-0.066;2022-08-19T13:19:45;29.40;99.90
43183;DHT22;28802;38.578;-0.066;2022-08-19T13:22:11;29.50;99.90
43183;DHT22;28802;38.578;-0.066;2022-08-19T13:24:38;29.40;99.90
43183;DHT22;28802;38.578;-0.066;2022-08-19T13:27:04;29.40;99.90
43183;DHT22;28802;38.578;-0.066;2022-08-19T13:29:30;29.60;99.90
43183;DHT22;28802;38.578;-0.066;2022-08-19T13:32:14;29.50;99.90
43183;DHT22;28802;38.578;-0.066;2022-08-19T13:34:58;29.20;99.90
43183;DHT22;28802;38.578;-0.066;2022-08-19T13:37:24;29.10;99.90
43183;DHT22;28802;38.578;-0.066;2022-08-19T13:40:11;29.10;99.90
43183;DHT22;28802;38.578;-0.066;2022-08-19T13:42:41;28.80;99.90
43183;DHT22;28802;38.578;-0.066;2022-08-19T13:45:08;28.90;99.90
43183;DHT22;28802;38.578;-0.066;2022-08-19T13:47:34;29.10;99.90
43183;DHT22;28802;38.578;-0.066;2022-08-19T13:50:03;29.10;99.90
43183;DHT22;28802;38.578;-0.066;2022-08-19T13:52:29;29.20;99.90
43183;DHT22;28802;38.578;-0.066;2022-08-19T13:54:55;29.10;99.90
43183;DHT22;28802;38.578;-0.066;2022-08-19T13:57:22;28.80;99.90
43183;DHT22;28802;38.578;-0.066;2022-08-19T13:59:48;28.70;99.90
43183;DHT22;28802;38.578;-0.066;2022-08-19T14:02:13;28.80;99.90
43183;DHT22;28802;38.578;-0.066;2022-08-19T14:04:40;28.40;99.90
43183;DHT22;28802;38.578;-0.066;2022-08-19T14:07:06;28.40;99.90
43183;DHT22;28802;38.578;-0.066;2022-08-19T14:09:32;28.50;99.90
43183;DHT22;28802;38.578;-0.066;2022-08-19T14:11:57;28.70;99.90
43183;DHT22;28802;38.578;-0.066;2022-08-19T14:14:23;28.30;99.90
43183;DHT22;28802;38.578;-0.066;2022-08-19T14:16:49;28.30;99.90
43183;DHT22;28802;38.578;-0.066;2022-08-19T14:19:15;28.50;99.90
43183;DHT22;28802;38.578;-0.066;2022-08-19T14:21:44;28.60;99.90
43183;DHT22;28802;38.578;-0.066;2022-08-19T14:24:10;28.50;99.90
43183;DHT22;28802;38.578;-0.066;2022-08-19T14:26:36;28.50;99.90
43183;DHT22;28802;38.578;-0.066;2022-08-19T14:29:02;28.80;99.90
43183;DHT22;28802;38.578;-0.066;2022-08-19T14:31:28;29.00;99.90
43183;DHT22;28802;38.578;-0.066;2022-08-19T14:33:54;28.90;99.90
43183;DHT22;28802;38.578;-0.066;2022-08-19T14:36:20;28.40;99.90
43183;DHT22;28802;38.578;-0.066;2022-08-19T14:38:49;28.50;99.90
43183;DHT22;28802;38.578;-0.066;2022-08-19T14:41:19;28.60;99.90
43183;DHT22;28802;38.578;-0.066;2022-08-19T14:43:48;28.70;99.90
43183;DHT22;28802;38.578;-0.066;2022-08-19T14:46:16;28.40;99.90
43183;DHT22;28802;38.578;-0.066;2022-08-19T14:48:43;28.50;99.90
43183;DHT22;28802;38.578;-0.066;2022-08-19T14:51:10;28.70;99.90
43183;DHT22;28802;38.578;-0.066;2022-08-19T14:53:36;28.60;99.90
43183;DHT22;28802;38.578;-0.066;2022-08-19T14:56:07;28.60;99.90
43183;DHT22;28802;38.578;-0.066;2022-08-19T14:58:33;28.60;99.90
43183;DHT22;28802;38.578;-0.066;2022-08-19T15:00:59;28.60;99.90
43183;DHT22;28802;38.578;-0.066;2022-08-19T15:03:25;28.80;99.90
43183;DHT22;28802;38.578;-0.066;2022-08-19T15:05:51;28.60;99.90
43183;DHT22;28802;38.578;-0.066;2022-08-19T15:08:17;28.40;99.90
43183;DHT22;28802;38.578;-0.066;2022-08-19T15:10:43;28.30;99.90
43183;DHT22;28802;38.578;-0.066;2022-08-19T15:13:09;28.50;99.90
43183;DHT22;28802;38.578;-0.066;2022-08-19T15:15:35;28.90;99.90
43183;DHT22;28802;38.578;-0.066;2022-08-19T15:18:01;28.90;99.90
43183;DHT22;28802;38.578;-0.066;2022-08-19T15:20:28;29.10;99.90
43183;DHT22;28802;38.578;-0.066;2022-08-19T15:22:54;28.70;99.90
43183;DHT22;28802;38.578;-0.066;2022-08-19T15:25:20;28.50;99.90
43183;DHT22;28802;38.578;-0.066;2022-08-19T15:27:47;28.50;99.90
43183;DHT22;28802;38.578;-0.066;2022-08-19T15:30:22;28.60;99.90
43183;DHT22;28802;38.578;-0.066;2022-08-19T15:32:49;28.70;99.90
43183;DHT22;28802;38.578;-0.066;2022-08-19T15:35:15;28.80;99.90
43183;DHT22;28802;38.578;-0.066;2022-08-19T15:37:44;28.50;99.90
43183;DHT22;28802;38.578;-0.066;2022-08-19T15:40:11;28.60;99.90
43183;DHT22;28802;38.578;-0.066;2022-08-19T15:42:38;28.80;99.90